createdAt,value
2023-05-04T00:00:44.413Z,100746.50
2023-05-04T00:03:49.941Z,100739.56
2023-05-04T00:06:52.731Z,100744.50
2023-05-04T00:09:55.323Z,100739.97
2023-05-04T00:12:57.952Z,100738.25
2023-05-04T00:16:00.567Z,100738.97
2023-05-04T00:19:03.386Z,100737.06
2023-05-04T00:22:06.275Z,100739.63
2023-05-04T00:25:08.908Z,100730.06
2023-05-04T00:28:11.539Z,100728.22
2023-05-04T00:31:15.224Z,100727.34
2023-05-04T00:34:18.538Z,100724.59
2023-05-04T00:37:21.276Z,100723.75
2023-05-04T00:40:23.950Z,100726.06
2023-05-04T00:43:26.870Z,100732.00
2023-05-04T00:46:29.659Z,100730.22
2023-05-04T00:49:32.326Z,100740.59
2023-05-04T00:52:36.276Z,100735.37
2023-05-04T00:55:40.826Z,100739.66
2023-05-04T00:58:43.686Z,100737.09
2023-05-04T01:01:46.534Z,100738.72
2023-05-04T01:04:49.287Z,100735.97
2023-05-04T01:08:09.982Z,100730.59
2023-05-04T01:11:20.445Z,100733.22
2023-05-04T01:14:23.256Z,100731.38
2023-05-04T01:17:26.134Z,100733.94
2023-05-04T01:20:28.761Z,100739.88
2023-05-04T01:23:31.377Z,100733.19
2023-05-04T01:26:45.261Z,100732.91
2023-05-04T01:29:52.453Z,100731.91
2023-05-04T01:32:57.667Z,100728.31
2023-05-04T01:36:00.640Z,100730.75
2023-05-04T01:39:03.557Z,100726.41
2023-05-04T01:42:08.746Z,100723.72
2023-05-04T01:45:11.801Z,100723.88
2023-05-04T01:48:14.401Z,100723.03
2023-05-04T01:51:16.986Z,100728.19
2023-05-04T01:54:19.584Z,100726.44
2023-05-04T01:57:22.240Z,100723.84
2023-05-04T02:00:24.886Z,100721.22
2023-05-04T02:03:27.869Z,100710.78
2023-05-04T02:06:30.707Z,100706.47
2023-05-04T02:09:33.840Z,100707.97
2023-05-04T02:12:36.245Z,100707.16
2023-05-04T02:15:39.513Z,100714.19
2023-05-04T02:18:41.915Z,100706.19
2023-05-04T02:21:44.779Z,100711.78
2023-05-04T02:24:47.034Z,100711.44
2023-05-04T02:27:49.902Z,100715.72
2023-05-04T02:30:52.228Z,100706.28
2023-05-04T02:33:55.053Z,100708.13
2023-05-04T02:36:57.456Z,100708.06
2023-05-04T02:40:18.552Z,100710.38
2023-05-04T02:43:21.176Z,100713.88
2023-05-04T02:46:25.324Z,100717.09
2023-05-04T02:49:27.957Z,100721.66
2023-05-04T02:52:30.528Z,100725.16
2023-05-04T02:55:33.125Z,100721.41
2023-05-04T02:58:35.730Z,100723.16
2023-05-04T03:01:38.404Z,100726.50
2023-05-04T03:04:41.160Z,100728.97
2023-05-04T03:07:43.841Z,100729.88
2023-05-04T03:10:46.426Z,100730.06
2023-05-04T03:13:49.032Z,100722.75
2023-05-04T03:16:51.980Z,100727.84
2023-05-04T03:19:54.852Z,100730.34
2023-05-04T03:22:57.985Z,100727.69
2023-05-04T03:26:01.707Z,100722.19
2023-05-04T03:29:04.708Z,100727.69
2023-05-04T03:32:07.766Z,100724.91
2023-05-04T03:35:10.796Z,100729.97
2023-05-04T03:38:13.457Z,100725.59
2023-05-04T03:41:19.128Z,100733.31
2023-05-04T03:44:21.714Z,100731.38
2023-05-04T03:47:24.672Z,100728.56
2023-05-04T03:50:27.396Z,100738.13
2023-05-04T03:53:30.075Z,100741.53
2023-05-04T03:56:32.645Z,100743.56
2023-05-04T03:59:35.764Z,100740.22
2023-05-04T04:02:38.948Z,100742.94
2023-05-04T04:05:41.701Z,100746.34
2023-05-04T04:08:44.521Z,100743.59
2023-05-04T04:11:47.395Z,100745.37
2023-05-04T04:14:51.965Z,100744.69
2023-05-04T04:17:54.637Z,100751.78
2023-05-04T04:20:57.288Z,100753.78
2023-05-04T04:23:59.920Z,100758.44
2023-05-04T04:27:02.732Z,100763.03
2023-05-04T04:30:05.954Z,100763.16
2023-05-04T04:33:09.130Z,100763.31
2023-05-04T04:36:12.783Z,100770.50
2023-05-04T04:39:16.656Z,100760.03
2023-05-04T04:42:19.514Z,100765.38
2023-05-04T04:45:22.324Z,100765.50
2023-05-04T04:48:25.899Z,100765.75
2023-05-04T04:51:28.710Z,100764.88
2023-05-04T04:54:31.756Z,100766.75
2023-05-04T04:57:34.368Z,100774.75
2023-05-04T05:00:37.244Z,100780.16
2023-05-04T05:03:39.846Z,100777.56
2023-05-04T05:06:43.524Z,100779.53
2023-05-04T05:09:46.186Z,100773.19
2023-05-04T05:12:51.660Z,100779.53
2023-05-04T05:15:54.278Z,100773.59
2023-05-04T05:18:56.993Z,100772.63
2023-05-04T05:21:59.531Z,100779.53
2023-05-04T05:25:02.157Z,100781.28
2023-05-04T05:28:04.789Z,100779.59
2023-05-04T05:31:07.463Z,100777.16
2023-05-04T05:34:10.078Z,100784.41
2023-05-04T05:37:12.937Z,100775.84
2023-05-04T05:40:15.462Z,100776.88
2023-05-04T05:43:18.050Z,100785.19
2023-05-04T05:46:20.704Z,100782.00
2023-05-04T05:49:23.428Z,100778.41
2023-05-04T05:52:26.051Z,100775.81
2023-05-04T05:55:28.649Z,100786.66
2023-05-04T05:58:31.406Z,100792.41
2023-05-04T06:01:34.012Z,100793.31
2023-05-04T06:04:36.998Z,100793.03
2023-05-04T06:07:39.440Z,100786.28
2023-05-04T06:10:43.009Z,100789.37
2023-05-04T06:13:45.312Z,100791.03
2023-05-04T06:16:48.276Z,100786.16
2023-05-04T06:19:51.408Z,100793.97
2023-05-04T06:22:54.411Z,100794.62
2023-05-04T06:25:56.813Z,100792.59
2023-05-04T06:28:59.922Z,100789.97
2023-05-04T06:32:02.303Z,100804.47
2023-05-04T06:35:06.538Z,100806.34
2023-05-04T06:38:08.904Z,100803.44
2023-05-04T06:41:11.891Z,100808.22
2023-05-04T06:44:14.523Z,100801.59
2023-05-04T06:47:17.400Z,100803.78
2023-05-04T06:50:19.736Z,100803.88
2023-05-04T06:53:22.839Z,100802.25
2023-05-04T06:56:25.587Z,100806.09
2023-05-04T06:59:28.444Z,100810.25
2023-05-04T07:02:30.856Z,100809.41
2023-05-04T07:05:37.731Z,100809.47
2023-05-04T07:08:40.058Z,100806.78
2023-05-04T07:11:42.944Z,100800.50
2023-05-04T07:14:45.344Z,100802.28
2023-05-04T07:17:48.624Z,100797.28
2023-05-04T07:20:51.354Z,100800.84
2023-05-04T07:23:55.286Z,100796.91
2023-05-04T07:26:57.668Z,100800.69
2023-05-04T07:30:01.553Z,100798.53
2023-05-04T07:33:03.933Z,100804.78
2023-05-04T07:36:07.100Z,100806.75
2023-05-04T07:39:09.538Z,100811.41
2023-05-04T07:42:12.462Z,100803.59
2023-05-04T07:45:17.071Z,100809.91
2023-05-04T07:48:20.544Z,100805.72
2023-05-04T07:51:23.034Z,100802.22
2023-05-04T07:54:26.012Z,100810.22
2023-05-04T07:57:28.617Z,100814.69
2023-05-04T08:00:31.769Z,100803.19
2023-05-04T08:03:34.419Z,100789.91
2023-05-04T08:06:39.448Z,100800.47
2023-05-04T08:09:42.031Z,100795.94
2023-05-04T08:12:44.658Z,100795.88
2023-05-04T08:15:47.322Z,100801.00
2023-05-04T08:18:50.033Z,100801.75
2023-05-04T08:21:53.122Z,100792.66
2023-05-04T08:24:55.728Z,100804.78
2023-05-04T08:27:58.475Z,100801.97
2023-05-04T08:31:01.141Z,100803.13
2023-05-04T08:34:04.143Z,100810.47
2023-05-04T08:37:06.770Z,100809.91
2023-05-04T08:40:09.623Z,100811.44
2023-05-04T08:43:12.620Z,100808.88
2023-05-04T08:46:16.392Z,100803.88
2023-05-04T08:49:22.873Z,100813.00
2023-05-04T08:52:26.186Z,100815.38
2023-05-04T08:55:30.897Z,100811.34
2023-05-04T08:58:37.981Z,100801.22
2023-05-04T09:01:41.849Z,100797.38
2023-05-04T09:04:44.797Z,100796.56
2023-05-04T09:07:50.963Z,100803.19
2023-05-04T09:10:53.947Z,100804.81
2023-05-04T09:13:56.797Z,100795.75
2023-05-04T09:17:00.271Z,100788.94
2023-05-04T09:20:03.670Z,100808.09
2023-05-04T09:23:09.788Z,100794.97
2023-05-04T09:26:12.415Z,100788.41
2023-05-04T09:29:15.561Z,100793.25
2023-05-04T09:32:18.876Z,100783.88
2023-05-04T09:35:34.035Z,100788.22
2023-05-04T09:38:37.349Z,100783.59
2023-05-04T09:41:40.341Z,100772.78
2023-05-04T09:44:43.180Z,100776.91
2023-05-04T09:47:46.018Z,100780.34
2023-05-04T09:50:53.193Z,100773.66
2023-05-04T09:53:57.488Z,100767.59
2023-05-04T09:57:06.474Z,100766.72
2023-05-04T10:00:13.178Z,100767.06
2023-05-04T10:03:16.220Z,100760.78
2023-05-04T10:06:19.210Z,100759.59
2023-05-04T10:09:22.429Z,100752.72
2023-05-04T10:12:24.717Z,100754.00
2023-05-04T10:15:27.765Z,100752.44
2023-05-04T10:18:29.978Z,100750.50
2023-05-04T10:21:42.427Z,100751.31
2023-05-04T10:25:03.906Z,100740.75
2023-05-04T10:28:14.107Z,100741.16
2023-05-04T10:31:17.926Z,100732.78
2023-05-04T10:34:25.879Z,100725.19
2023-05-04T10:37:28.390Z,100725.34
2023-05-04T10:40:38.291Z,100727.22
2023-05-04T10:43:40.638Z,100723.69
2023-05-04T10:46:43.492Z,100722.50
2023-05-04T10:49:45.961Z,100718.78
2023-05-04T10:52:53.807Z,100714.94
2023-05-04T10:55:56.159Z,100712.03
2023-05-04T10:59:08.086Z,100705.34
2023-05-04T11:02:10.728Z,100712.22
2023-05-04T11:05:18.119Z,100699.81
2023-05-04T11:08:20.527Z,100697.69
2023-05-04T11:11:24.310Z,100698.31
2023-05-04T11:14:27.715Z,100690.06
2023-05-04T11:17:30.747Z,100683.00
2023-05-04T11:20:33.548Z,100673.78
2023-05-04T11:23:36.695Z,100667.41
2023-05-04T11:26:46.314Z,100672.94
2023-05-04T11:29:59.257Z,100659.44
2023-05-04T11:33:11.822Z,100665.22
2023-05-04T11:36:14.990Z,100654.63
2023-05-04T11:39:17.421Z,100655.72
2023-05-04T11:42:20.624Z,100656.28
2023-05-04T11:45:28.100Z,100652.03
2023-05-04T11:48:32.437Z,100657.31
2023-05-04T11:51:34.780Z,100647.91
2023-05-04T11:54:37.645Z,100643.25
2023-05-04T11:57:40.553Z,100650.03
2023-05-04T12:00:44.339Z,100645.00
2023-05-04T12:03:53.651Z,100646.56
2023-05-04T12:06:58.233Z,100643.47
2023-05-04T12:10:02.191Z,100641.66
2023-05-04T12:13:15.370Z,100631.91
2023-05-04T12:16:19.328Z,100636.38
2023-05-04T12:19:21.907Z,100632.63
2023-05-04T12:22:35.738Z,100634.41
2023-05-04T12:25:47.454Z,100627.50
2023-05-04T12:28:57.690Z,100627.56
2023-05-04T12:32:00.290Z,100627.69
2023-05-04T12:35:04.088Z,100625.16
2023-05-04T12:38:07.034Z,100622.41
2023-05-04T12:41:10.983Z,100616.81
2023-05-04T12:44:14.369Z,100619.69
2023-05-04T12:47:17.781Z,100628.06
2023-05-04T12:50:20.390Z,100619.69
2023-05-04T12:53:25.903Z,100618.97
2023-05-04T12:56:28.639Z,100619.59
2023-05-04T12:59:31.253Z,100608.00
2023-05-04T13:02:34.035Z,100608.22
2023-05-04T13:05:36.693Z,100608.38
2023-05-04T13:08:39.251Z,100601.09
2023-05-04T13:11:42.137Z,100604.91
2023-05-04T13:14:44.922Z,100601.25
2023-05-04T13:17:47.587Z,100599.59
2023-05-04T13:20:52.028Z,100598.03
2023-05-04T13:23:58.163Z,100594.31
2023-05-04T13:27:00.771Z,100592.25
2023-05-04T13:30:03.999Z,100585.28
2023-05-04T13:33:16.865Z,100585.00
2023-05-04T13:36:29.399Z,100579.13
2023-05-04T13:39:39.151Z,100573.69
2023-05-04T13:42:41.832Z,100564.62
2023-05-04T13:45:44.554Z,100559.13
2023-05-04T13:48:47.312Z,100559.16
2023-05-04T13:51:50.273Z,100561.75
2023-05-04T13:54:53.589Z,100553.91
2023-05-04T13:57:56.142Z,100550.66
2023-05-04T14:01:00.526Z,100553.22
2023-05-04T14:04:03.869Z,100559.06
2023-05-04T14:07:06.211Z,100558.25
2023-05-04T14:10:09.406Z,100551.75
2023-05-04T14:13:11.972Z,100549.06
2023-05-04T14:16:14.921Z,100557.47
2023-05-04T14:19:17.187Z,100554.06
2023-05-04T14:22:20.036Z,100547.22
2023-05-04T14:25:22.552Z,100545.50
2023-05-04T14:28:26.183Z,100551.47
2023-05-04T14:31:28.545Z,100554.88
2023-05-04T14:34:32.605Z,100550.09
2023-05-04T14:37:35.797Z,100547.19
2023-05-04T14:40:39.084Z,100542.13
2023-05-04T14:43:42.404Z,100542.22
2023-05-04T14:46:45.285Z,100543.28
2023-05-04T14:49:47.916Z,100542.66
2023-05-04T14:52:50.830Z,100539.28
2023-05-04T14:55:53.279Z,100536.44
2023-05-04T14:58:57.350Z,100536.50
2023-05-04T15:01:59.650Z,100540.25
2023-05-04T15:05:02.816Z,100529.50
2023-05-04T15:08:05.350Z,100543.19
2023-05-04T15:11:08.188Z,100542.47
2023-05-04T15:14:10.599Z,100536.31
2023-05-04T15:17:15.082Z,100536.59
2023-05-04T15:20:23.104Z,100536.41
2023-05-04T15:23:26.560Z,100533.19
2023-05-04T15:26:31.755Z,100539.53
2023-05-04T15:29:34.712Z,100534.28
2023-05-04T15:32:37.297Z,100540.69
2023-05-04T15:35:40.352Z,100531.78
2023-05-04T15:38:43.627Z,100530.34
2023-05-04T15:41:46.690Z,100529.34
2023-05-04T15:44:49.253Z,100533.06
2023-05-04T15:47:54.243Z,100530.50
2023-05-04T15:50:56.717Z,100533.31
2023-05-04T15:53:59.690Z,100535.94
2023-05-04T15:57:02.852Z,100530.91
2023-05-04T16:00:06.710Z,100528.37
2023-05-04T16:03:09.586Z,100522.91
2023-05-04T16:06:12.760Z,100523.91
2023-05-04T16:09:17.188Z,100524.19
2023-05-04T16:12:20.612Z,100521.63
2023-05-04T16:15:23.382Z,100520.16
2023-05-04T16:18:25.999Z,100522.72
2023-05-04T16:21:29.199Z,100527.41
2023-05-04T16:24:31.888Z,100526.72
2023-05-04T16:27:34.514Z,100517.84
2023-05-04T16:30:37.441Z,100518.75
2023-05-04T16:33:41.430Z,100527.78
2023-05-04T16:36:44.206Z,100536.69
2023-05-04T16:39:46.779Z,100536.69
2023-05-04T16:42:49.814Z,100534.19
2023-05-04T16:45:52.420Z,100538.69
2023-05-04T16:48:55.150Z,100544.84
2023-05-04T16:51:57.927Z,100553.75
2023-05-04T16:55:00.698Z,100546.72
2023-05-04T16:58:03.311Z,100547.62
2023-05-04T17:01:05.972Z,100551.19
2023-05-04T17:04:09.059Z,100548.59
2023-05-04T17:07:11.632Z,100549.47
2023-05-04T17:10:18.725Z,100545.06
2023-05-04T17:13:21.521Z,100559.19
2023-05-04T17:16:24.186Z,100560.97
2023-05-04T17:19:27.273Z,100560.06
2023-05-04T17:22:29.976Z,100562.69
2023-05-04T17:25:33.998Z,100568.87
2023-05-04T17:28:37.063Z,100564.44
2023-05-04T17:31:39.825Z,100574.16
2023-05-04T17:34:42.433Z,100573.25
2023-05-04T17:37:45.107Z,100582.06
2023-05-04T17:40:47.797Z,100589.97
2023-05-04T17:43:50.711Z,100591.72
2023-05-04T17:46:53.500Z,100589.94
2023-05-04T17:49:56.150Z,100591.66
2023-05-04T17:52:58.762Z,100590.75
2023-05-04T17:56:01.321Z,100596.06
2023-05-04T17:59:04.045Z,100599.53
2023-05-04T18:02:07.356Z,100603.00
2023-05-04T18:05:10.437Z,100605.56
2023-05-04T18:08:13.185Z,100617.00
2023-05-04T18:11:15.929Z,100615.25
2023-05-04T18:14:18.533Z,100620.47
2023-05-04T18:17:21.366Z,100617.78
2023-05-04T18:20:24.673Z,100622.16
2023-05-04T18:23:27.336Z,100629.19
2023-05-04T18:26:32.260Z,100627.37
2023-05-04T18:29:34.820Z,100632.63
2023-05-04T18:32:38.757Z,100644.91
2023-05-04T18:35:41.956Z,100644.91
2023-05-04T18:38:49.796Z,100648.31
2023-05-04T18:41:52.439Z,100644.78
2023-05-04T18:44:57.781Z,100652.66
2023-05-04T18:48:00.479Z,100658.81
2023-05-04T18:51:04.474Z,100665.84
2023-05-04T18:54:07.517Z,100665.84
2023-05-04T18:57:12.611Z,100671.94
2023-05-04T19:00:15.485Z,100678.09
2023-05-04T19:03:21.431Z,100678.94
2023-05-04T19:06:26.835Z,100675.41
2023-05-04T19:09:32.854Z,100680.75
2023-05-04T19:12:35.497Z,100675.34
2023-05-04T19:15:38.711Z,100684.09
2023-05-04T19:18:41.125Z,100692.00
2023-05-04T19:21:44.155Z,100698.13
2023-05-04T19:24:49.226Z,100697.16
2023-05-04T19:27:53.530Z,100700.69
2023-05-04T19:30:55.893Z,100697.97
2023-05-04T19:33:58.797Z,100702.38
2023-05-04T19:37:01.175Z,100704.06
2023-05-04T19:40:05.618Z,100696.16
2023-05-04T19:43:12.899Z,100707.50
2023-05-04T19:46:22.892Z,100700.47
2023-05-04T19:49:25.653Z,100697.81
2023-05-04T19:52:34.866Z,100698.63
2023-05-04T19:55:42.192Z,100696.81
2023-05-04T19:58:48.139Z,100693.25
2023-05-04T20:01:53.134Z,100696.72
2023-05-04T20:04:56.213Z,100697.50
2023-05-04T20:08:00.042Z,100694.81
2023-05-04T20:11:04.168Z,100705.31
2023-05-04T20:14:06.889Z,100702.59
2023-05-04T20:17:09.873Z,100705.19
2023-05-04T20:20:18.980Z,100703.44
2023-05-04T20:23:23.535Z,100705.16
2023-05-04T20:26:26.179Z,100706.00
2023-05-04T20:29:29.093Z,100703.31
2023-05-04T20:32:34.547Z,100713.84
2023-05-04T20:35:42.374Z,100712.06
2023-05-04T20:38:45.000Z,100705.88
2023-05-04T20:41:50.240Z,100711.16
2023-05-04T20:44:52.875Z,100719.88
2023-05-04T20:47:55.486Z,100730.41
2023-05-04T20:51:12.732Z,100727.78
2023-05-04T20:54:17.320Z,100725.13
2023-05-04T20:57:20.023Z,100733.94
2023-05-04T21:00:22.684Z,100727.69
2023-05-04T21:03:27.888Z,100731.13
2023-05-04T21:06:31.267Z,100724.84
2023-05-04T21:09:33.844Z,100726.66
2023-05-04T21:12:36.459Z,100721.41
2023-05-04T21:15:39.142Z,100724.03
2023-05-04T21:18:41.852Z,100730.22
2023-05-04T21:21:44.482Z,100731.25
2023-05-04T21:24:47.351Z,100728.53
2023-05-04T21:27:50.017Z,100736.47
2023-05-04T21:30:52.613Z,100740.03
2023-05-04T21:33:55.378Z,100736.53
2023-05-04T21:36:58.067Z,100748.84
2023-05-04T21:40:01.266Z,100737.44
2023-05-04T21:43:03.852Z,100731.38
2023-05-04T21:46:07.176Z,100733.94
2023-05-04T21:49:09.816Z,100733.94
2023-05-04T21:52:12.813Z,100734.75
2023-05-04T21:55:17.586Z,100734.72
2023-05-04T21:58:20.383Z,100741.75
2023-05-04T22:01:23.155Z,100745.19
2023-05-04T22:04:26.214Z,100752.19
2023-05-04T22:07:28.544Z,100753.06
2023-05-04T22:10:31.565Z,100749.50
2023-05-04T22:13:33.928Z,100746.81
2023-05-04T22:16:37.072Z,100757.41
2023-05-04T22:19:39.611Z,100759.09
2023-05-04T22:22:42.558Z,100760.78
2023-05-04T22:25:48.305Z,100761.59
2023-05-04T22:28:51.271Z,100758.00
2023-05-04T22:31:54.436Z,100758.78
2023-05-04T22:34:57.691Z,100760.47
2023-05-04T22:38:00.218Z,100758.59
2023-05-04T22:41:03.327Z,100754.09
2023-05-04T22:44:05.829Z,100754.88
2023-05-04T22:47:08.841Z,100755.69
2023-05-04T22:50:11.186Z,100752.16
2023-05-04T22:53:14.686Z,100756.47
2023-05-04T22:56:18.313Z,100754.50
2023-05-04T22:59:21.197Z,100743.91
2023-05-04T23:02:23.737Z,100748.06
2023-05-04T23:05:27.047Z,100747.09
2023-05-04T23:08:29.432Z,100743.59
2023-05-04T23:11:32.532Z,100746.88
2023-05-04T23:14:34.975Z,100743.19
2023-05-04T23:17:38.819Z,100746.56
2023-05-04T23:20:41.246Z,100742.97
2023-05-04T23:23:44.186Z,100749.97
2023-05-04T23:26:46.469Z,100746.41
2023-05-04T23:29:49.306Z,100736.72
2023-05-04T23:32:51.620Z,100732.22
2023-05-04T23:35:55.750Z,100742.59
2023-05-04T23:38:58.628Z,100740.81
2023-05-04T23:42:01.616Z,100730.19
2023-05-04T23:45:04.948Z,100732.75
2023-05-04T23:48:07.908Z,100729.94
2023-05-04T23:51:10.241Z,100725.56
2023-05-04T23:54:14.480Z,100734.16
2023-05-04T23:57:17.026Z,100726.09
